Terminal Aerodrome Forecast
Issued by NWS Mobile, AL

Home | Current Version | Previous Version | Text Only | Print | Product List | Glossary On
Versions: 1 2 3 4 5 6 7 8 9 10 11 12 13 14 15 16 17 18 19 20 21 22 23 24 25 26
000
FTUS44 KMOB 240217 AAB
TAFPNS
TAF AMD
KPNS 240217Z 2402/2424 14010KT P6SM BKN005 OVC110
     FM240300 15005KT 4SM BR BKN005
      TEMPO 2409/2412 1SM BR OVC002
     FM241500 16009KT P6SM OVC015
     FM241800 17013KT P6SM BKN030=

USA.gov is the U.S. government's official web portal to all federal, state and local government web resources and services.